Time;durP1;ratioP1;P1;durP2;ratioP2;P2;SDS_P1;SDS_P2;PMS_P1;PMS_P2;Temp;Humidity;BMP_temperature;BMP_pressure;BME280_temperature;BME280_humidity;BME280_pressure;Samples;Min_cycle;Max_cycle;Signal;HPM_P1;HPM_P2
2022/06/11 00:01:08;;;;;;;14.77;10.80;;;14.50;99.90;;;;;;5113990;22;20043;-60
2022/06/11 00:03:33;;;;;;;13.32;10.45;;;14.50;99.90;;;;;;5112938;28;20611;-60
2022/06/11 00:05:59;;;;;;;14.30;8.93;;;14.40;99.90;;;;;;5112725;28;20058;-61
2022/06/11 00:08:26;;;;;;;12.80;9.68;;;14.40;99.90;;;;;;5094892;28;20094;-61
2022/06/11 00:10:51;;;;;;;19.02;10.32;;;14.40;99.90;;;;;;5113077;28;20110;-61
2022/06/11 00:13:22;;;;;;;16.63;9.95;;;14.40;99.90;;;;;;5112954;28;20118;-61
2022/06/11 00:15:52;;;;;;;19.67;11.10;;;14.30;99.90;;;;;;5112963;28;20744;-61
2022/06/11 00:18:20;;;;;;;15.40;9.05;;;14.30;99.90;;;;;;5112959;28;20477;-61
2022/06/11 00:20:45;;;;;;;16.02;9.38;;;14.40;99.90;;;;;;5118765;27;20083;-61
2022/06/11 00:23:12;;;;;;;12.18;9.05;;;14.30;99.90;;;;;;5122756;27;20015;-61
2022/06/11 00:25:39;;;;;;;13.25;9.55;;;14.20;99.90;;;;;;5122043;27;20024;-61
2022/06/11 00:28:06;;;;;;;14.80;10.00;;;14.20;99.90;;;;;;5119401;27;20055;-61
2022/06/11 00:30:32;;;;;;;18.35;9.95;;;14.20;99.90;;;;;;5122781;27;20034;-60
2022/06/11 00:32:58;;;;;;;16.43;9.90;;;14.20;99.90;;;;;;5123677;27;20382;-60
2022/06/11 00:35:26;;;;;;;19.13;11.10;;;14.20;99.90;;;;;;5121604;27;20501;-60
2022/06/11 00:37:53;;;;;;;19.25;11.30;;;14.10;99.90;;;;;;5122584;27;20433;-60
2022/06/11 00:40:23;;;;;;;18.23;11.25;;;14.00;99.90;;;;;;5105111;27;20113;-60
2022/06/11 00:42:48;;;;;;;17.20;11.43;;;14.10;99.90;;;;;;5118861;27;20035;-61
2022/06/11 00:45:20;;;;;;;17.02;10.43;;;14.10;99.90;;;;;;5122039;27;20019;-60
2022/06/11 00:47:50;;;;;;;16.63;10.45;;;14.00;99.90;;;;;;5118835;27;20016;-61
2022/06/11 00:50:38;;;;;;;22.13;10.93;;;14.00;99.90;;;;;;5122393;27;20152;-59
2022/06/11 00:53:33;;;;;;;18.08;11.52;;;14.00;99.90;;;;;;5123668;27;20449;-59
2022/06/11 00:56:00;;;;;;;14.95;12.10;;;14.00;99.90;;;;;;5080586;27;20044;-61
2022/06/11 00:58:30;;;;;;;;;;;14.00;99.90;;;;;;5119368;27;20015;-60
2022/06/11 01:00:59;;;;;;;15.20;10.35;;;13.90;99.90;;;;;;5121520;27;19958;-59
2022/06/11 01:03:29;;;;;;;19.08;11.25;;;13.90;99.90;;;;;;5117777;27;20363;-60
2022/06/11 01:06:07;;;;;;;14.48;11.07;;;13.80;99.90;;;;;;5091750;28;20039;-60
2022/06/11 01:08:39;;;;;;;16.98;12.45;;;13.80;99.90;;;;;;5091601;28;20020;-60
2022/06/11 01:11:23;;;;;;;18.85;11.52;;;13.80;99.90;;;;;;5091984;28;20055;-60
2022/06/11 01:14:15;;;;;;;15.02;10.73;;;13.80;99.90;;;;;;5091595;28;20630;-60
2022/06/11 01:16:54;;;;;;;16.08;11.68;;;13.70;99.90;;;;;;5091470;28;20101;-60
2022/06/11 01:19:43;;;;;;;17.95;10.48;;;13.70;99.90;;;;;;5091585;28;20028;-61
2022/06/11 01:22:27;;;;;;;20.48;11.50;;;13.60;99.90;;;;;;5053200;28;20044;-60
2022/06/11 01:25:19;;;;;;;16.10;11.32;;;13.60;99.90;;;;;;5091762;28;20044;-60
2022/06/11 01:28:13;;;;;;;15.15;10.50;;;13.60;99.90;;;;;;5059755;28;20060;-60
2022/06/11 01:30:58;;;;;;;15.10;10.48;;;13.60;99.90;;;;;;5091284;28;20024;-60
2022/06/11 01:33:24;;;;;;;16.27;9.50;;;13.60;99.90;;;;;;5049561;28;20402;-60
2022/06/11 01:36:05;;;;;;;14.68;9.90;;;13.60;99.90;;;;;;5090946;28;20028;-61
2022/06/11 01:38:50;;;;;;;18.92;11.07;;;13.40;99.90;;;;;;5090993;28;20027;-60
2022/06/11 01:41:38;;;;;;;14.35;9.38;;;13.50;99.90;;;;;;5091127;28;20053;-60
2022/06/11 01:44:08;;;;;;;14.80;9.85;;;13.50;99.90;;;;;;5091182;28;20371;-60
2022/06/11 01:46:41;;;;;;;18.48;10.70;;;13.50;99.90;;;;;;5091133;28;20024;-60
2022/06/11 01:49:25;;;;;;;16.08;10.68;;;13.40;99.90;;;;;;5091029;28;20024;-60
2022/06/11 01:52:11;;;;;;;18.08;9.35;;;13.40;99.90;;;;;;5090919;28;20111;-60
2022/06/11 01:54:50;;;;;;;15.63;10.32;;;13.40;99.90;;;;;;5090978;28;20058;-61
2022/06/11 01:57:28;;;;;;;14.48;9.95;;;13.40;99.90;;;;;;5091034;28;20032;-60
2022/06/11 02:00:23;;;;;;;15.25;10.50;;;13.40;99.90;;;;;;5090828;28;20612;-60
2022/06/11 02:03:16;;;;;;;17.08;9.80;;;13.40;99.90;;;;;;5090329;28;20487;-61
2022/06/11 02:05:53;;;;;;;17.95;11.40;;;13.20;99.90;;;;;;5108820;28;20024;-60
2022/06/11 02:08:45;;;;;;;15.70;11.05;;;13.20;99.90;;;;;;5111108;28;20023;-60
2022/06/11 02:11:31;;;;;;;14.48;9.68;;;13.20;99.90;;;;;;5110960;28;20040;-60
2022/06/11 02:14:20;;;;;;;14.85;9.38;;;13.10;99.90;;;;;;5110743;28;20032;-60
2022/06/11 02:16:49;;;;;;;14.70;9.85;;;13.20;99.90;;;;;;5110921;28;20510;-61
2022/06/11 02:19:20;;;;;;;14.73;10.27;;;13.20;99.90;;;;;;5121031;27;20027;-60
2022/06/11 02:21:54;;;;;;;16.15;10.10;;;13.30;99.90;;;;;;5131311;27;20027;-60
2022/06/11 02:24:32;;;;;;;12.80;9.68;;;13.30;99.90;;;;;;5131260;27;20490;-60
2022/06/11 02:27:02;;;;;;;14.25;9.93;;;13.20;99.90;;;;;;5131246;27;20054;-60
2022/06/11 02:29:31;;;;;;;15.43;9.98;;;13.20;99.90;;;;;;5131201;27;20046;-60
2022/06/11 02:32:07;;;;;;;14.45;9.32;;;13.10;99.90;;;;;;5131059;27;20030;-60
2022/06/11 02:34:39;;;;;;;16.65;10.55;;;13.10;99.90;;;;;;5131342;27;20043;-59
2022/06/11 02:37:17;;;;;;;14.02;10.50;;;13.00;99.90;;;;;;5130873;27;20042;-60
2022/06/11 02:39:44;;;;;;;15.63;11.73;;;13.10;99.90;;;;;;5124190;27;20027;-60
2022/06/11 02:42:15;;;;;;;18.70;11.07;;;13.10;99.90;;;;;;5109594;28;20047;-60
2022/06/11 02:44:40;;;;;;;17.70;11.88;;;13.00;99.90;;;;;;5110398;28;20038;-59
2022/06/11 02:47:06;;;;;;;16.60;11.95;;;13.00;99.90;;;;;;5110344;28;20019;-60
2022/06/11 02:49:37;;;;;;;16.65;11.88;;;13.00;99.90;;;;;;5110299;28;20027;-59
2022/06/11 02:52:11;;;;;;;18.30;13.15;;;13.00;99.90;;;;;;5118522;28;20675;-59
2022/06/11 02:54:37;;;;;;;18.92;12.73;;;13.00;99.90;;;;;;5127201;27;20031;-59
2022/06/11 02:57:05;;;;;;;18.70;11.40;;;13.00;99.90;;;;;;5130626;28;20053;-59
2022/06/11 02:59:31;;;;;;;16.55;11.43;;;13.00;99.90;;;;;;5130935;28;20078;-60
2022/06/11 03:01:57;;;;;;;15.52;10.57;;;13.00;99.90;;;;;;5130479;28;20074;-59
2022/06/11 03:04:26;;;;;;;16.10;11.63;;;13.00;99.90;;;;;;5124640;28;20027;-59
2022/06/11 03:06:53;;;;;;;20.20;12.32;;;12.90;99.90;;;;;;5114265;28;20050;-59
2022/06/11 03:09:23;;;;;;;21.57;11.83;;;12.90;99.90;;;;;;5114281;28;20027;-59
2022/06/11 03:11:49;;;;;;;17.40;11.98;;;13.00;99.90;;;;;;5114531;28;20027;-59
2022/06/11 03:14:15;;;;;;;17.55;11.27;;;13.00;99.90;;;;;;5114254;28;20352;-59
2022/06/11 03:16:41;;;;;;;17.38;11.85;;;13.00;99.90;;;;;;5114352;28;20067;-59
2022/06/11 03:19:08;;;;;;;16.88;11.32;;;13.00;99.90;;;;;;5114291;28;20035;-59
2022/06/11 03:21:35;;;;;;;17.17;11.90;;;13.00;99.90;;;;;;5114157;28;20153;-59
2022/06/11 03:24:01;;;;;;;19.00;11.85;;;12.90;99.90;;;;;;5114232;28;20077;-58
2022/06/11 03:26:26;;;;;;;15.30;11.20;;;12.90;99.90;;;;;;5114083;28;20057;-59
2022/06/11 03:28:52;;;;;;;17.90;13.35;;;12.90;99.90;;;;;;5113980;28;20536;-59
2022/06/11 03:31:18;;;;;;;18.25;11.70;;;12.90;99.90;;;;;;5113984;28;20034;-59
2022/06/11 03:33:44;;;;;;;22.98;12.23;;;12.90;99.90;;;;;;5113880;28;20024;-59
2022/06/11 03:36:13;;;;;;;17.35;12.40;;;13.00;99.90;;;;;;5114818;27;20032;-59
2022/06/11 03:38:41;;;;;;;17.52;12.77;;;13.00;99.90;;;;;;5104245;28;20019;-59
2022/06/11 03:41:07;;;;;;;;;;;13.00;99.90;;;;;;5103260;28;20048;-58
2022/06/11 03:43:33;;;;;;;22.48;11.80;;;12.90;99.90;;;;;;5102510;28;19912;-59
2022/06/11 03:45:59;;;;;;;16.85;11.43;;;12.90;99.90;;;;;;5124101;27;20495;-59
2022/06/11 03:48:28;;;;;;;19.70;12.20;;;13.00;99.90;;;;;;5119912;27;20023;-59
2022/06/11 03:50:57;;;;;;;16.65;12.75;;;13.10;99.90;;;;;;5124763;27;20439;-58
2022/06/11 03:53:24;;;;;;;16.15;12.15;;;13.00;99.90;;;;;;5122596;27;20028;-58
2022/06/11 03:55:50;;;;;;;18.00;12.63;;;13.00;99.90;;;;;;5127884;27;20023;-59
2022/06/11 03:58:18;;;;;;;17.77;11.50;;;13.00;99.90;;;;;;5134131;27;20087;-59
2022/06/11 04:03:30;;;;;;;17.25;11.57;;;13.10;99.90;;;;;;5133913;27;20732;-60
2022/06/11 04:05:56;;;;;;;17.10;11.90;;;13.20;99.90;;;;;;5114929;27;20032;-59
2022/06/11 04:08:23;;;;;;;16.10;11.40;;;13.20;99.90;;;;;;5113071;28;20111;-58
2022/06/11 04:10:49;;;;;;;22.13;12.95;;;13.20;99.90;;;;;;5093201;28;20085;-59
2022/06/11 04:13:16;;;;;;;19.10;12.85;;;13.20;99.90;;;;;;5092110;28;20045;-59
2022/06/11 04:15:43;;;;;;;21.77;13.55;;;13.30;99.90;;;;;;5091844;28;20042;-59
2022/06/11 04:18:32;;;;;;;18.08;13.32;;;13.30;99.90;;;;;;5091204;28;20024;-59
2022/06/11 04:21:00;;;;;;;18.08;13.77;;;13.40;99.90;;;;;;5091457;28;20016;-59
2022/06/11 04:23:30;;;;;;;23.85;14.77;;;13.50;99.90;;;;;;5090852;28;20052;-59
2022/06/11 04:25:58;;;;;;;23.50;14.45;;;13.50;99.90;;;;;;5090710;28;20024;-59
2022/06/11 04:28:25;;;;;;;21.17;14.45;;;13.50;99.90;;;;;;5090483;28;20031;-59
2022/06/11 04:30:51;;;;;;;21.02;14.73;;;13.60;99.90;;;;;;5090638;28;20158;-59
2022/06/11 04:33:17;;;;;;;26.00;15.05;;;13.70;99.90;;;;;;5090546;28;20107;-59
2022/06/11 04:35:42;;;;;;;26.33;16.15;;;13.80;99.90;;;;;;5091217;28;20091;-59
2022/06/11 04:38:08;;;;;;;24.50;14.32;;;13.90;99.90;;;;;;5092290;28;20487;-59
2022/06/11 04:40:34;;;;;;;21.08;15.23;;;14.00;99.90;;;;;;5092517;28;20402;-59
2022/06/11 04:42:59;;;;;;;23.08;17.00;;;14.00;99.90;;;;;;5092123;28;20035;-59
2022/06/11 04:45:25;;;;;;;19.42;15.60;;;14.10;99.90;;;;;;5092324;28;20175;-59
2022/06/11 04:47:51;;;;;;;25.52;16.67;;;14.20;99.90;;;;;;5092209;28;20043;-60
2022/06/11 04:50:17;;;;;;;21.27;15.77;;;14.20;99.90;;;;;;5092168;28;20349;-59
2022/06/11 04:52:44;;;;;;;26.65;15.90;;;14.30;99.90;;;;;;5092020;28;20165;-59
2022/06/11 04:55:10;;;;;;;32.05;17.60;;;14.40;99.90;;;;;;5091718;28;20028;-58
2022/06/11 04:57:36;;;;;;;22.20;16.17;;;14.50;99.90;;;;;;5091783;28;20054;-59
2022/06/11 05:00:05;;;;;;;22.52;17.13;;;14.50;99.90;;;;;;5091947;28;20024;-59
2022/06/11 05:02:31;;;;;;;22.70;15.88;;;14.60;99.90;;;;;;5091370;28;20076;-59
2022/06/11 05:04:56;;;;;;;28.92;17.90;;;14.70;99.90;;;;;;5112702;27;20815;-59
2022/06/11 05:07:22;;;;;;;25.02;16.63;;;14.70;99.90;;;;;;5132619;27;20031;-59
2022/06/11 05:09:48;;;;;;;32.60;17.40;;;14.90;99.90;;;;;;5132569;27;20020;-59
2022/06/11 05:12:16;;;;;;;21.63;16.33;;;14.90;99.90;;;;;;5132296;27;20144;-59
2022/06/11 05:14:42;;;;;;;27.73;17.83;;;15.00;99.90;;;;;;5132348;27;20016;-59
2022/06/11 05:17:08;;;;;;;22.63;17.08;;;15.10;99.90;;;;;;5116047;27;20046;-59
2022/06/11 05:19:33;;;;;;;26.88;18.40;;;15.20;99.90;;;;;;5111850;28;20027;-60
2022/06/11 05:22:00;;;;;;;22.50;16.73;;;15.20;99.90;;;;;;5112048;28;20070;-59
2022/06/11 05:24:29;;;;;;;27.93;16.50;;;15.30;99.90;;;;;;5111687;28;20031;-59
2022/06/11 05:27:02;;;;;;;29.90;17.48;;;15.30;99.90;;;;;;5111630;28;20027;-59
2022/06/11 05:29:34;;;;;;;27.35;19.38;;;15.40;99.90;;;;;;5111420;28;20031;-59
2022/06/11 05:32:00;;;;;;;26.40;17.27;;;15.40;99.90;;;;;;5111572;28;20024;-59
2022/06/11 05:34:28;;;;;;;23.48;17.33;;;15.50;99.90;;;;;;5111368;28;20031;-59
2022/06/11 05:36:55;;;;;;;24.40;17.77;;;15.60;99.90;;;;;;5111471;28;20134;-61
2022/06/11 05:39:21;;;;;;;;;;;15.70;99.90;;;;;;5111737;28;20039;-59
2022/06/11 05:41:47;;;;;;;20.50;15.27;;;15.70;99.90;;;;;;5111206;28;19908;-59
2022/06/11 05:44:12;;;;;;;22.98;14.07;;;15.80;99.90;;;;;;5111209;28;20055;-58
2022/06/11 05:46:38;;;;;;;22.85;13.68;;;16.00;99.90;;;;;;5111330;28;20019;-60
2022/06/11 05:49:14;;;;;;;20.80;13.90;;;16.00;99.90;;;;;;5111318;28;20035;-60
2022/06/11 05:51:43;;;;;;;19.35;13.00;;;16.10;99.90;;;;;;5111006;28;20111;-59
2022/06/11 05:54:14;;;;;;;20.10;12.20;;;16.20;99.90;;;;;;5111101;28;20085;-59
2022/06/11 05:56:41;;;;;;;25.25;12.20;;;16.40;99.90;;;;;;5111001;28;20486;-59
2022/06/11 05:59:14;;;;;;;14.27;10.47;;;16.40;99.90;;;;;;5092795;28;20531;-60
2022/06/11 06:01:41;;;;;;;19.25;9.52;;;16.60;99.90;;;;;;5110829;28;20043;-59
2022/06/11 06:04:07;;;;;;;15.32;8.50;;;16.60;99.90;;;;;;5107970;28;20471;-59
2022/06/11 06:06:34;;;;;;;20.77;8.68;;;16.70;99.90;;;;;;5090492;28;20040;-60
2022/06/11 06:08:59;;;;;;;12.33;8.13;;;16.70;99.90;;;;;;5090730;28;20066;-59
2022/06/11 06:11:26;;;;;;;9.90;4.97;;;16.90;99.90;;;;;;5090540;28;20028;-59
2022/06/11 06:13:53;;;;;;;5.35;3.30;;;17.00;99.90;;;;;;5090390;28;20027;-60
2022/06/11 06:16:22;;;;;;;7.10;3.42;;;17.30;99.90;;;;;;5090615;28;20039;-60
2022/06/11 06:18:49;;;;;;;6.10;2.90;;;17.50;99.90;;;;;;5090254;28;20520;-59
2022/06/11 06:21:17;;;;;;;5.22;2.78;;;17.50;99.90;;;;;;5090434;28;20471;-59
2022/06/11 06:23:43;;;;;;;5.65;3.00;;;17.60;99.90;;;;;;5090243;28;20028;-60
2022/06/11 06:26:08;;;;;;;5.78;2.55;;;17.70;99.90;;;;;;5090307;28;20024;-59
2022/06/11 06:28:34;;;;;;;5.22;2.47;;;17.80;99.90;;;;;;5090203;28;20497;-60
2022/06/11 06:31:02;;;;;;;5.95;2.38;;;17.90;99.90;;;;;;5090175;28;20486;-60
2022/06/11 06:33:30;;;;;;;5.45;2.83;;;18.00;99.90;;;;;;5090027;28;20024;-60
2022/06/11 06:35:57;;;;;;;4.03;2.25;;;18.10;99.90;;;;;;5090188;28;20024;-60
2022/06/11 06:38:22;;;;;;;6.95;2.10;;;18.20;99.90;;;;;;5090215;28;20032;-59
2022/06/11 06:40:48;;;;;;;7.28;2.85;;;18.20;99.90;;;;;;5089316;28;20513;-59
2022/06/11 06:43:15;;;;;;;3.30;1.80;;;18.30;99.90;;;;;;5090056;28;20059;-59
2022/06/11 06:45:40;;;;;;;6.10;2.85;;;18.40;99.90;;;;;;5090098;28;20077;-59
2022/06/11 06:48:06;;;;;;;6.00;2.15;;;18.50;99.90;;;;;;5089884;28;20028;-59
2022/06/11 06:50:32;;;;;;;4.82;2.25;;;18.40;99.90;;;;;;5089847;28;20056;-59
2022/06/11 06:52:58;;;;;;;5.78;1.85;;;18.40;99.90;;;;;;5090062;28;20111;-59
2022/06/11 06:55:24;;;;;;;3.80;1.63;;;18.50;99.90;;;;;;5089987;28;20699;-59
2022/06/11 06:57:50;;;;;;;5.43;1.90;;;18.50;99.90;;;;;;5089757;28;20472;-59
2022/06/11 07:00:17;;;;;;;9.32;2.10;;;18.60;99.90;;;;;;5089770;28;20111;-59
2022/06/11 07:02:45;;;;;;;4.20;2.13;;;18.60;99.90;;;;;;5089589;28;20056;-59
2022/06/11 07:05:12;;;;;;;5.85;2.42;;;18.70;99.90;;;;;;5101210;28;20443;-59
2022/06/11 07:07:39;;;;;;;4.22;2.10;;;18.70;99.90;;;;;;5110148;28;20023;-59
2022/06/11 07:10:06;;;;;;;7.60;2.20;;;18.90;99.90;;;;;;5110030;28;20023;-59
2022/06/11 07:12:32;;;;;;;;;;;18.90;99.90;;;;;;5110539;28;20115;-60
2022/06/11 07:14:58;;;;;;;5.55;2.30;;;18.90;99.90;;;;;;5109628;28;19994;-59
2022/06/11 07:17:26;;;;;;;5.72;2.45;;;19.10;99.90;;;;;;5110024;28;20032;-59
2022/06/11 07:20:03;;;;;;;4.30;2.40;;;19.30;99.90;;;;;;5109887;28;20019;-59
2022/06/11 07:22:34;;;;;;;8.70;3.42;;;19.40;99.90;;;;;;5109972;28;20066;-59
2022/06/11 07:25:03;;;;;;;5.57;2.67;;;19.30;99.90;;;;;;5110014;28;20071;-59
2022/06/11 07:27:33;;;;;;;5.95;2.80;;;19.30;99.90;;;;;;5109453;28;20024;-60
2022/06/11 07:30:10;;;;;;;3.50;2.22;;;19.30;99.90;;;;;;5110112;28;20043;-60
2022/06/11 07:32:37;;;;;;;4.85;2.60;;;19.70;99.90;;;;;;5109891;28;20024;-59
2022/06/11 07:35:05;;;;;;;7.55;2.33;;;19.80;99.90;;;;;;5109732;28;20032;-59
2022/06/11 07:37:32;;;;;;;4.28;1.92;;;19.90;99.90;;;;;;5115094;28;20739;-59
2022/06/11 07:39:58;;;;;;;;;;;19.90;99.90;;;;;;5119377;28;20432;-59
2022/06/11 07:42:24;;;;;;;5.35;1.77;;;19.90;99.90;;;;;;5119351;28;20374;-61
2022/06/11 07:44:50;;;;;;;4.68;2.20;;;19.90;99.90;;;;;;5117846;28;20100;-59
2022/06/11 07:47:53;;;;;;;4.75;1.90;;;20.00;99.90;;;;;;5119247;28;20027;-60
2022/06/11 07:50:01;;;;;;;5.53;1.88;;;19.90;99.90;;;;;;5116931;28;20424;-58
2022/06/11 07:52:27;;;;;;;4.95;1.88;;;19.90;99.90;;;;;;5120411;27;20083;-59
2022/06/11 07:54:53;;;;;;;7.68;1.98;;;19.80;99.90;;;;;;5118769;27;20034;-59
2022/06/11 07:57:18;;;;;;;6.43;1.90;;;19.90;99.90;;;;;;5122507;27;20513;-59
2022/06/11 07:59:44;;;;;;;5.80;1.80;;;20.00;99.90;;;;;;5122765;27;20020;-59
2022/06/11 08:02:10;;;;;;;6.65;2.10;;;20.10;99.90;;;;;;5120936;27;20044;-57
2022/06/11 08:04:35;;;;;;;3.83;1.65;;;20.20;99.90;;;;;;5123103;27;20550;-60
2022/06/11 08:07:01;;;;;;;3.70;1.55;;;20.20;99.90;;;;;;5122298;27;20028;-61
2022/06/11 08:09:27;;;;;;;5.88;1.70;;;20.30;99.90;;;;;;5121585;27;20019;-60
2022/06/11 08:11:52;;;;;;;5.38;1.63;;;20.40;99.90;;;;;;5123384;27;20072;-60
2022/06/11 08:14:18;;;;;;;5.95;2.03;;;20.40;99.90;;;;;;5121478;27;20077;-60
2022/06/11 08:16:43;;;;;;;3.40;1.60;;;20.30;99.90;;;;;;5121591;27;20104;-61
2022/06/11 08:19:09;;;;;;;2.25;1.55;;;20.20;99.90;;;;;;5122946;27;20027;-60
2022/06/11 08:21:35;;;;;;;4.10;1.83;;;20.20;99.90;;;;;;5121254;27;20027;-60
2022/06/11 08:24:00;;;;;;;3.08;1.48;;;20.30;99.90;;;;;;5121918;27;20034;-60
2022/06/11 08:26:27;;;;;;;4.47;2.13;;;20.20;99.90;;;;;;5122618;27;20038;-60
2022/06/11 08:28:53;;;;;;;4.68;2.13;;;20.20;99.90;;;;;;5120818;27;20041;-61
2022/06/11 08:31:18;;;;;;;3.97;1.70;;;20.20;99.90;;;;;;5116547;27;20036;-59
2022/06/11 08:33:44;;;;;;;2.92;1.42;;;20.30;99.90;;;;;;5092436;28;20043;-60
2022/06/11 08:36:10;;;;;;;1.75;1.40;;;20.40;99.90;;;;;;5092278;28;20032;-60
2022/06/11 08:38:36;;;;;;;3.92;1.50;;;20.60;99.90;;;;;;5092258;28;20028;-60
2022/06/11 08:41:02;;;;;;;1.67;1.20;;;20.50;99.90;;;;;;5092508;28;20051;-60
2022/06/11 08:43:35;;;;;;;2.38;1.30;;;20.50;99.90;;;;;;5091945;28;20047;-61
2022/06/11 08:46:10;;;;;;;1.88;1.00;;;20.50;99.90;;;;;;5092232;28;20028;-60
2022/06/11 08:48:42;;;;;;;2.55;1.10;;;20.70;99.90;;;;;;5073976;28;20454;-62
2022/06/11 08:51:31;;;;;;;2.85;1.13;;;21.00;99.90;;;;;;5092321;28;20016;-60
2022/06/11 08:54:02;;;;;;;3.85;1.08;;;21.10;99.90;;;;;;5121504;27;20038;-58
2022/06/11 08:56:51;;;;;;;2.67;1.10;;;21.20;99.90;;;;;;5132417;27;20035;-61
2022/06/11 08:59:45;;;;;;;3.33;1.48;;;21.30;99.90;;;;;;5132587;27;20019;-60
2022/06/11 09:02:38;;;;;;;4.63;1.25;;;21.40;99.90;;;;;;5132203;27;20047;-60
2022/06/11 09:05:21;;;;;;;1.10;1.00;;;21.30;99.90;;;;;;5132823;27;20023;-65
2022/06/11 09:08:34;;;;;;;2.10;1.15;;;21.30;97.40;;;;;;5132671;27;20023;-67
2022/06/11 09:11:12;;;;;;;3.10;0.90;;;21.40;96.10;;;;;;5132664;27;20027;-66
2022/06/11 09:14:02;;;;;;;5.20;1.02;;;21.50;97.90;;;;;;5132441;27;20128;-66
2022/06/11 09:16:37;;;;;;;6.43;1.63;;;21.70;97.30;;;;;;5132250;27;20045;-66
2022/06/11 09:19:13;;;;;;;3.85;0.98;;;21.80;96.10;;;;;;5132075;27;20054;-66
2022/06/11 09:21:38;;;;;;;3.03;1.13;;;21.80;93.40;;;;;;5111216;27;20107;-66
2022/06/11 09:24:27;;;;;;;1.33;0.77;;;21.90;97.10;;;;;;5109186;28;20103;-65
2022/06/11 09:27:09;;;;;;;0.70;0.60;;;21.90;91.30;;;;;;5111182;28;20031;-66
2022/06/11 09:29:41;;;;;;;3.83;1.42;;;21.90;92.60;;;;;;5111749;28;20031;-65
2022/06/11 09:32:23;;;;;;;3.47;0.82;;;22.10;92.30;;;;;;5111485;28;20027;-66
2022/06/11 09:34:52;;;;;;;3.97;0.88;;;22.20;89.20;;;;;;5111791;28;20027;-65
2022/06/11 09:37:23;;;;;;;3.17;1.33;;;22.20;90.00;;;;;;5111325;28;20042;-66
2022/06/11 09:39:55;;;;;;;2.33;1.13;;;22.30;90.10;;;;;;5111407;28;20024;-65
2022/06/11 09:42:46;;;;;;;3.88;1.17;;;22.40;89.90;;;;;;5111017;28;20478;-66
2022/06/11 09:45:28;;;;;;;16.42;2.00;;;22.40;90.60;;;;;;5097162;28;20039;-68
2022/06/11 09:48:18;;;;;;;2.20;0.90;;;22.30;86.80;;;;;;5111181;28;20080;-66
2022/06/11 09:50:46;;;;;;;1.23;0.75;;;22.60;90.90;;;;;;5111053;28;20043;-68
2022/06/11 09:53:25;;;;;;;4.47;1.10;;;22.60;91.10;;;;;;5111191;28;20035;-66
2022/06/11 09:56:04;;;;;;;1.65;1.05;;;22.50;90.60;;;;;;5110994;28;20046;-67
2022/06/11 09:58:51;;;;;;;5.47;1.13;;;22.50;90.90;;;;;;5111116;28;20080;-66
2022/06/11 10:01:28;;;;;;;3.63;1.45;;;22.70;88.50;;;;;;5110950;28;20039;-64
2022/06/11 10:04:11;;;;;;;2.72;1.02;;;22.80;89.50;;;;;;5110833;28;20060;-67
2022/06/11 10:06:43;;;;;;;8.30;1.17;;;22.90;89.80;;;;;;5111166;28;20118;-65
2022/06/11 10:09:52;;;;;;;3.28;0.93;;;23.00;89.90;;;;;;5111121;28;20047;-66
2022/06/11 10:12:33;;;;;;;3.60;1.10;;;23.20;88.40;;;;;;5100942;28;20044;-65
2022/06/11 10:15:19;;;;;;;5.53;1.30;;;23.00;79.50;;;;;;5110459;28;20032;-67
2022/06/11 10:18:23;;;;;;;5.15;1.13;;;22.90;77.30;;;;;;5110872;28;20040;-67
2022/06/11 10:20:56;;;;;;;2.08;0.70;;;23.20;84.60;;;;;;5095105;28;20182;-60
2022/06/11 10:23:42;;;;;;;4.13;1.42;;;23.20;81.00;;;;;;5110044;28;20053;-60
2022/06/11 10:26:15;;;;;;;6.38;1.08;;;23.50;84.50;;;;;;5110645;28;20111;-60
2022/06/11 10:28:50;;;;;;;8.77;1.50;;;23.60;81.20;;;;;;5110645;28;20104;-60
2022/06/11 10:31:20;;;;;;;1.92;0.77;;;23.50;78.50;;;;;;5109479;28;20019;-61
2022/06/11 10:34:08;;;;;;;4.93;0.70;;;23.50;77.70;;;;;;5110351;28;20031;-59
2022/06/11 10:36:37;;;;;;;;;;;23.80;81.70;;;;;;5110616;28;20047;-60
2022/06/11 10:39:02;;;;;;;6.72;1.92;;;23.90;83.10;;;;;;5108930;28;20243;-59
2022/06/11 10:41:58;;;;;;;2.63;1.02;;;23.90;78.50;;;;;;5109683;28;20390;-60
2022/06/11 10:44:49;;;;;;;4.85;1.13;;;23.70;76.90;;;;;;5110248;28;20023;-59
2022/06/11 10:47:15;;;;;;;4.43;0.90;;;24.20;76.30;;;;;;5110275;28;20482;-60
2022/06/11 10:49:42;;;;;;;3.45;1.58;;;24.20;74.50;;;;;;5110521;28;20032;-59
2022/06/11 10:52:36;;;;;;;3.58;1.42;;;24.30;74.30;;;;;;5110181;28;20027;-60
2022/06/11 10:55:06;;;;;;;2.60;0.77;;;24.50;76.30;;;;;;5106927;28;20088;-59
2022/06/11 10:57:34;;;;;;;4.93;0.82;;;24.50;76.50;;;;;;5110160;28;20032;-60
2022/06/11 11:00:18;;;;;;;3.83;0.95;;;24.60;75.80;;;;;;5110035;28;20617;-59
2022/06/11 11:02:56;;;;;;;2.05;0.70;;;24.70;75.90;;;;;;5109874;28;20137;-59
2022/06/11 11:05:22;;;;;;;5.22;1.08;;;24.80;75.60;;;;;;5110296;28;20106;-59
2022/06/11 11:08:01;;;;;;;1.98;0.88;;;24.80;66.50;;;;;;5110221;28;20032;-59
2022/06/11 11:10:36;;;;;;;3.03;0.77;;;24.90;66.30;;;;;;5110160;28;20093;-59
2022/06/11 11:13:14;;;;;;;1.02;0.52;;;24.70;67.60;;;;;;5110014;28;20039;-59
2022/06/11 11:15:44;;;;;;;3.45;0.90;;;24.80;66.40;;;;;;5109836;28;20050;-59
2022/06/11 11:18:17;;;;;;;4.38;1.20;;;25.00;72.60;;;;;;5110039;28;20490;-59
2022/06/11 11:20:45;;;;;;;3.28;1.02;;;25.10;71.50;;;;;;5109854;28;20437;-60
2022/06/11 11:23:11;;;;;;;2.45;0.98;;;25.10;70.30;;;;;;5109989;28;20020;-59
2022/06/11 11:25:47;;;;;;;3.70;1.15;;;25.10;70.70;;;;;;5091155;28;20084;-57
2022/06/11 11:28:21;;;;;;;7.22;1.35;;;25.20;65.10;;;;;;5114073;28;20057;-59
2022/06/11 11:30:57;;;;;;;4.57;1.45;;;25.40;72.60;;;;;;5113912;28;20028;-58
2022/06/11 11:33:27;;;;;;;3.13;1.00;;;25.50;72.20;;;;;;5113800;28;20062;-58
2022/06/11 11:36:11;;;;;;;6.20;2.30;;;25.70;67.70;;;;;;5114240;28;20139;-58
2022/06/11 11:38:38;;;;;;;3.85;2.45;;;25.70;69.50;;;;;;5114217;28;20024;-59
2022/06/11 11:41:04;;;;;;;3.58;1.45;;;25.70;65.50;;;;;;5113822;28;20433;-61
2022/06/11 11:43:57;;;;;;;3.75;0.80;;;25.80;65.10;;;;;;5113611;28;20038;-59
2022/06/11 11:46:24;;;;;;;4.45;1.50;;;25.80;63.40;;;;;;5109015;28;20038;-61
2022/06/11 11:48:57;;;;;;;3.25;1.58;;;25.80;67.20;;;;;;5113524;28;20122;-60
2022/06/11 11:51:27;;;;;;;9.80;1.90;;;25.80;68.50;;;;;;5113594;28;20038;-60
2022/06/11 11:54:17;;;;;;;11.20;6.47;;;25.60;64.40;;;;;;5113593;28;20150;-60
2022/06/11 11:57:06;;;;;;;4.13;1.40;;;25.90;67.60;;;;;;5113061;28;20078;-59
2022/06/11 11:59:37;;;;;;;2.95;1.00;;;26.10;71.60;;;;;;5113567;28;20020;-58
2022/06/11 12:02:37;;;;;;;2.35;1.00;;;26.00;62.20;;;;;;5112659;28;20452;-59
2022/06/11 12:05:31;;;;;;;3.38;1.45;;;25.90;66.30;;;;;;5113495;28;20443;-58
2022/06/11 12:07:58;;;;;;;4.20;1.23;;;26.10;65.20;;;;;;5074339;28;20035;-58
2022/06/11 12:10:24;;;;;;;;;;;26.20;64.00;;;;;;5111773;28;20618;-58
2022/06/11 12:12:53;;;;;;;3.40;0.93;;;26.40;65.50;;;;;;5111477;28;20404;-59
2022/06/11 12:15:48;;;;;;;2.33;0.85;;;26.50;69.60;;;;;;5113273;28;20024;-58
2022/06/11 12:18:17;;;;;;;6.43;1.20;;;26.60;62.40;;;;;;5112842;28;20508;-58
2022/06/11 12:20:43;;;;;;;2.33;0.88;;;26.30;60.20;;;;;;5112685;28;20111;-59
2022/06/11 12:23:11;;;;;;;3.33;0.90;;;26.20;60.70;;;;;;5112958;28;20161;-59
2022/06/11 12:25:45;;;;;;;7.32;1.40;;;26.20;59.70;;;;;;5112811;28;20134;-58
2022/06/11 12:28:14;;;;;;;6.15;1.30;;;26.40;62.00;;;;;;5112930;28;20038;-59
2022/06/11 12:30:41;;;;;;;1.73;0.80;;;26.20;62.10;;;;;;5112980;28;20028;-59
2022/06/11 12:33:12;;;;;;;5.60;1.27;;;26.20;61.20;;;;;;5098909;28;20514;-58
2022/06/11 12:35:58;;;;;;;2.67;1.02;;;26.30;61.10;;;;;;5092528;28;20425;-60
2022/06/11 12:38:43;;;;;;;3.72;0.90;;;26.30;61.30;;;;;;5091248;28;20095;-61
2022/06/11 12:41:15;;;;;;;5.22;1.40;;;26.30;63.80;;;;;;5092497;28;20023;-59
2022/06/11 12:44:03;;;;;;;3.47;1.33;;;26.40;62.70;;;;;;5092260;28;20472;-59
2022/06/11 12:46:50;;;;;;;9.82;2.10;;;26.40;63.30;;;;;;5092233;28;20058;-58
2022/06/11 12:49:44;;;;;;;5.38;1.50;;;26.50;66.00;;;;;;5073892;28;20418;-59
2022/06/11 12:52:38;;;;;;;5.13;1.42;;;26.70;60.20;;;;;;5091607;28;20043;-58
2022/06/11 12:55:06;;;;;;;5.45;1.60;;;26.40;62.90;;;;;;5091981;28;20024;-59
2022/06/11 12:57:53;;;;;;;4.78;1.40;;;26.60;67.50;;;;;;5073674;28;20039;-59
2022/06/11 13:00:40;;;;;;;3.78;1.27;;;26.70;63.90;;;;;;5092201;28;20115;-58
2022/06/11 13:03:14;;;;;;;5.85;1.13;;;26.80;64.20;;;;;;5091540;28;20048;-58
2022/06/11 13:06:04;;;;;;;2.95;1.15;;;26.90;60.70;;;;;;5073852;28;20057;-59
2022/06/11 13:08:48;;;;;;;3.85;1.60;;;26.80;62.50;;;;;;5091760;28;20839;-58
2022/06/11 13:11:37;;;;;;;3.22;1.20;;;26.80;61.90;;;;;;5091502;28;20028;-59